Askov, Minnesota
Current Conditions -  °F | °C
As of 6:24 AM on Friday 31 Oct 2014 (Local Time) from K04W Reporting Station
Clear Clear  
Wind Chill: 27°   Ceiling: Unl
Heat Index: 27°   Visibility: 10mi
Dew Point: 19°   Wind: 0mph
Humidity: 74%   Direction: NA
Pressure: 30.5"   Gusts: NA
Location:  46.19°N, 92.78°W
Report Text: K04W 311124Z AUTO 00000KT 10SM CLR M03/M07 A3050 RMK AO2
Loading
Personal Weather Stations






























Interactive Weather Map
Tropical Storm Tracking
New forecast layout! Learn more

10-Day Weather Forecast

Advertisements
Track Severe Weather on mobile